Storden, MN (56174)

3:23 AM CST on February 14, 2016 (GMT -0600)
Sorenson Seed | | Change Station
CLOSE
Current Station
Personal Weather Station
Location: Storden, MN
Elevation: 1404 ft
Nearby Weather Stations
Active Advisory: Winter Weather Advisory

Elev 1404 ft 44.04 °N, 95.33 °W | Updated 2 minutes ago

Overcast
Overcast
12.1 °F
Feels Like -7 °F
N
23.0
Wind Variable Wind from SE
Gusts 23.0 mph

Today
High -- | Low -- °F
--% Chance of Precip.
Yesterday
High -- | Low -- °F
Precip. -- in
Pressure 30.01 in
Visibility 2.5 miles
Clouds Overcast 700 ft
Windchill -7 °F
Dew Point 10 °F
Humidity 89%
Rainfall 0.00 in
Snow Depth Not available.
7:22 AM 5:48 PM
Waxing Crescent, 40% visible
METAR KMWM 140914Z AUTO 14016G21KT 2 1/2SM -SN OVC007 M11/M13 A3001 RMK AO2 VIS 2V3
Pressure 30.01 in
Visibility 2.5 miles
Clouds Overcast 700 ft
Windchill -7 °F
Dew Point 10 °F
Humidity 89%
Rainfall 0.00 in
Snow Depth Not available.
7:22 AM 5:48 PM
Waxing Crescent, 40% visible
METAR KMWM 140914Z AUTO 14016G21KT 2 1/2SM -SN OVC007 M11/M13 A3001 RMK AO2 VIS 2V3

10-Day Weather Forecast

Almanac

Astronomy

Feb. 14, 2016 Rise Set
Actual Time
Civil Twilight
Nautical Twilight
Astronomical Twilight
Moon
Length of Visible Light
Length of Day
Tomorrow will be .
, % of the Moon is Illuminated

Today's Extremes

State Highs State Lows

Community

WunderPhotos

Upload Photos

1,892,761 photos uploaded!

WunderBlog® & News

Nearby

Air Quality

  Air Quality AQ Index Pollutant
Not available.

Snow Depth

Station Depth Elevation

Earthquake Activity

City Distance Mag. Time & Date
Minimum magnitude displayed is 2.5.

Coastal Water Temperatures

Place Temperature

Stations

Nearby Weather Stations

Station Location Temp. Windchill Dew Point Humidity Wind Precip. Elev Updated Type
                   

Watches & Warnings

Winter Weather Advisory
Issued: 9:26 PM CST Feb. 13, 2016 – National Weather Service

... Winter Weather Advisory remains in effect until noon CST
Sunday...

* timing... intermittent snowfall will occur through the night. The
snowfall will then be ending Sunday morning.

* Accumulations... generally one and a half to 3 inches. However
there could be some locally higher amounts of 4 to 5 inches of
snow from Brookings South Dakota to Marshall Minnesota along
the Highway 14 corridor.

* Wind and visibility... southeast winds 20 to 30 mph could cause
visibilities to lower to less than a half mile in snow and
blowing snow in open areas. Brief whiteout conditions could be
possible after midnight tonight primarily in southwest
Minnesota.

Precautionary/preparedness actions...

A Winter Weather Advisory for snow and blowing snow means that
visibilities will be limited due to a combination of falling and
blowing snow. Use caution when traveling... especially in open
areas.